createdAt,value
2023-05-25T00:00:26.717Z,7.77
2023-05-25T00:02:56.623Z,7.93
2023-05-25T00:05:27.870Z,7.97
2023-05-25T00:07:57.322Z,8.23
2023-05-25T00:10:27.404Z,7.60
2023-05-25T00:12:58.024Z,8.33
2023-05-25T00:15:28.249Z,7.57
2023-05-25T00:17:58.041Z,7.77
2023-05-25T00:20:27.466Z,8.00
2023-05-25T00:22:56.575Z,8.23
2023-05-25T00:25:26.164Z,7.97
2023-05-25T00:27:57.232Z,7.80
2023-05-25T00:30:28.878Z,8.00
2023-05-25T00:32:58.140Z,8.60
2023-05-25T00:35:29.178Z,8.43
2023-05-25T00:38:01.308Z,9.27
2023-05-25T00:40:32.266Z,8.20
2023-05-25T00:43:04.834Z,8.43
2023-05-25T00:45:38.437Z,8.73
2023-05-25T00:48:09.597Z,9.47
2023-05-25T00:50:42.651Z,9.87
2023-05-25T00:53:14.486Z,8.60
2023-05-25T00:55:50.596Z,9.33
2023-05-25T00:58:24.306Z,10.17
2023-05-25T01:00:56.368Z,9.63
2023-05-25T01:03:30.860Z,9.83
2023-05-25T01:06:02.356Z,9.47
2023-05-25T01:08:40.748Z,9.43
2023-05-25T01:12:23.798Z,9.90
2023-05-25T01:14:55.512Z,9.33
2023-05-25T01:17:24.093Z,10.00
2023-05-25T01:20:08.850Z,10.03
2023-05-25T01:22:46.656Z,9.10
2023-05-25T01:25:22.859Z,9.30
2023-05-25T01:27:59.579Z,9.70
2023-05-25T01:30:29.263Z,9.83
2023-05-25T01:32:58.589Z,10.00
2023-05-25T01:35:28.560Z,9.70
2023-05-25T01:38:00.644Z,9.93
2023-05-25T01:40:29.318Z,10.73
2023-05-25T01:42:57.798Z,10.37
2023-05-25T01:45:26.975Z,10.00
2023-05-25T01:48:07.033Z,9.63
2023-05-25T01:50:46.721Z,10.33
2023-05-25T01:53:21.832Z,9.93
2023-05-25T01:55:57.497Z,10.20
2023-05-25T01:58:28.023Z,10.40
2023-05-25T02:00:57.763Z,10.83
2023-05-25T02:03:26.658Z,10.37
2023-05-25T02:05:57.917Z,9.83
2023-05-25T02:08:27.962Z,9.73
2023-05-25T02:10:56.423Z,9.33
2023-05-25T02:13:24.894Z,10.00
2023-05-25T02:15:54.460Z,10.30
2023-05-25T02:18:23.779Z,10.70
2023-05-25T02:20:52.399Z,11.10
2023-05-25T02:23:21.154Z,11.47
2023-05-25T02:25:51.885Z,9.50
2023-05-25T02:28:22.795Z,10.27
2023-05-25T02:30:51.478Z,10.03
2023-05-25T02:33:20.396Z,10.87
2023-05-25T02:35:50.101Z,10.30
2023-05-25T02:38:18.581Z,9.87
2023-05-25T02:40:47.724Z,10.70
2023-05-25T02:43:17.620Z,11.27
2023-05-25T02:45:46.314Z,11.20
2023-05-25T02:48:14.727Z,10.03
2023-05-25T02:50:44.463Z,11.13
2023-05-25T02:53:12.921Z,9.90
2023-05-25T02:55:43.511Z,10.90
2023-05-25T02:58:12.461Z,10.70
2023-05-25T03:00:43.004Z,10.10
2023-05-25T03:03:11.711Z,11.60
2023-05-25T03:05:40.264Z,11.83
2023-05-25T03:08:09.384Z,11.30
2023-05-25T03:10:38.426Z,11.50
2023-05-25T03:13:07.420Z,11.33
2023-05-25T03:15:36.194Z,12.10
2023-05-25T03:18:07.145Z,12.00
2023-05-25T03:20:36.391Z,11.70
2023-05-25T03:23:05.187Z,11.77
2023-05-25T03:25:33.532Z,11.20
2023-05-25T03:28:02.125Z,11.27
2023-05-25T03:30:31.470Z,11.87
2023-05-25T03:33:00.141Z,11.47
2023-05-25T03:35:29.985Z,11.33
2023-05-25T03:37:58.444Z,10.70
2023-05-25T03:40:27.103Z,10.03
2023-05-25T03:42:55.688Z,11.70
2023-05-25T03:45:24.108Z,11.80
2023-05-25T03:47:53.225Z,11.10
2023-05-25T03:50:21.838Z,11.27
2023-05-25T03:52:52.687Z,11.37
2023-05-25T03:55:21.344Z,12.10
2023-05-25T03:57:49.818Z,11.57
2023-05-25T04:00:18.785Z,11.33
2023-05-25T04:02:47.382Z,12.37
2023-05-25T04:09:23.874Z,12.57
2023-05-25T04:11:52.594Z,12.37
2023-05-25T04:14:21.785Z,11.63
2023-05-25T04:16:50.609Z,12.33
2023-05-25T04:19:19.285Z,12.47
2023-05-25T04:22:01.026Z,13.63
2023-05-25T04:24:32.606Z,12.97
2023-05-25T04:27:02.356Z,12.53
2023-05-25T04:29:32.148Z,13.73
2023-05-25T04:32:01.015Z,13.07
2023-05-25T04:34:30.177Z,12.00
2023-05-25T04:36:58.848Z,11.90
2023-05-25T04:39:27.567Z,11.23
2023-05-25T04:41:57.672Z,11.33
2023-05-25T04:44:29.960Z,11.67
2023-05-25T04:46:59.622Z,11.80
2023-05-25T04:49:28.166Z,13.10
2023-05-25T04:51:56.598Z,11.33
2023-05-25T04:54:25.545Z,12.17
2023-05-25T04:56:54.294Z,13.17
2023-05-25T04:59:24.199Z,12.17
2023-05-25T05:01:52.903Z,11.70
2023-05-25T05:04:21.527Z,12.53
2023-05-25T05:06:50.100Z,12.00
2023-05-25T05:09:18.701Z,12.20
2023-05-25T05:11:47.124Z,11.87
2023-05-25T05:14:15.697Z,11.23
2023-05-25T05:16:45.481Z,11.47
2023-05-25T05:19:14.358Z,11.87
2023-05-25T05:21:43.016Z,11.40
2023-05-25T05:24:11.767Z,11.80
2023-05-25T05:26:56.171Z,10.57
2023-05-25T05:29:26.999Z,10.87
2023-05-25T05:31:57.628Z,11.17
2023-05-25T05:34:26.136Z,10.93
2023-05-25T05:36:58.491Z,10.27
2023-05-25T05:39:28.288Z,10.97
2023-05-25T05:41:57.191Z,10.70
2023-05-25T05:44:29.002Z,9.83
2023-05-25T05:47:01.887Z,9.27
2023-05-25T05:49:31.309Z,9.10
2023-05-25T05:52:00.477Z,8.07
2023-05-25T05:54:29.185Z,8.47
2023-05-25T05:56:57.843Z,7.70
2023-05-25T05:59:26.859Z,7.17
2023-05-25T06:01:56.176Z,6.53
2023-05-25T06:04:29.004Z,6.97
2023-05-25T06:06:58.639Z,7.63
2023-05-25T06:09:27.567Z,6.80
2023-05-25T06:11:56.163Z,6.20
2023-05-25T06:14:26.776Z,5.60
2023-05-25T06:16:56.948Z,5.93
2023-05-25T06:19:26.896Z,6.57
2023-05-25T06:21:55.364Z,6.87
2023-05-25T06:24:23.956Z,6.17
2023-05-25T06:26:52.514Z,5.40
2023-05-25T06:29:21.022Z,5.20
2023-05-25T06:31:49.532Z,5.47
2023-05-25T06:34:18.003Z,4.67
2023-05-25T06:36:48.178Z,4.50
2023-05-25T06:39:16.704Z,4.53
2023-05-25T06:41:45.344Z,4.43
2023-05-25T06:44:13.908Z,5.00
2023-05-25T06:46:42.492Z,4.17
2023-05-25T06:49:11.481Z,4.60
2023-05-25T06:51:40.000Z,4.70
2023-05-25T06:54:09.925Z,4.27
2023-05-25T06:56:38.369Z,4.07
2023-05-25T07:01:36.762Z,4.53
2023-05-25T07:04:05.334Z,4.37
2023-05-25T07:06:34.105Z,5.13
2023-05-25T07:09:02.467Z,4.97
2023-05-25T07:11:32.410Z,5.03
2023-05-25T07:14:00.962Z,4.23
2023-05-25T07:16:29.692Z,4.77
2023-05-25T07:19:00.052Z,4.80
2023-05-25T07:21:32.482Z,4.33
2023-05-25T07:24:01.793Z,5.07
2023-05-25T07:26:32.202Z,5.27
2023-05-25T07:29:01.621Z,5.20
2023-05-25T07:31:30.799Z,5.90
2023-05-25T07:33:59.639Z,5.30
2023-05-25T07:36:28.227Z,5.60
2023-05-25T07:38:56.747Z,5.73
2023-05-25T07:41:25.417Z,5.73
2023-05-25T07:43:55.252Z,5.33
2023-05-25T07:46:25.436Z,5.27
2023-05-25T07:48:54.721Z,5.73
2023-05-25T07:51:26.586Z,6.13
2023-05-25T07:53:55.418Z,6.10
2023-05-25T07:56:24.128Z,4.87
2023-05-25T07:58:52.594Z,5.83
2023-05-25T08:01:24.893Z,5.70
2023-05-25T08:03:54.912Z,5.93
2023-05-25T08:06:23.795Z,5.30
2023-05-25T08:08:52.387Z,5.33
2023-05-25T08:11:25.308Z,5.93
2023-05-25T08:13:53.900Z,5.43
2023-05-25T08:16:24.086Z,5.87
2023-05-25T08:18:52.640Z,5.13
2023-05-25T08:21:21.436Z,5.43
2023-05-25T08:23:50.798Z,5.93
2023-05-25T08:26:37.862Z,5.27
2023-05-25T08:29:08.295Z,5.90
2023-05-25T08:31:38.302Z,5.00
2023-05-25T08:34:06.924Z,5.33
2023-05-25T08:36:36.277Z,4.90
2023-05-25T08:39:05.861Z,4.90
2023-05-25T08:41:36.046Z,4.70
2023-05-25T08:44:08.112Z,5.20
2023-05-25T08:46:38.751Z,5.30
2023-05-25T08:49:11.690Z,5.30
2023-05-25T08:51:44.334Z,5.97
2023-05-25T08:54:15.229Z,4.57
2023-05-25T08:56:51.330Z,5.07
2023-05-25T08:59:32.858Z,5.20
2023-05-25T09:02:21.567Z,5.33
2023-05-25T09:04:50.272Z,5.03
2023-05-25T09:07:19.204Z,5.80
2023-05-25T09:09:50.011Z,5.33
2023-05-25T09:12:19.920Z,4.93
2023-05-25T09:14:48.590Z,5.30
2023-05-25T09:17:20.115Z,4.53
2023-05-25T09:19:48.791Z,4.60
2023-05-25T09:22:17.984Z,4.87
2023-05-25T09:24:47.116Z,5.10
2023-05-25T09:27:19.676Z,4.53
2023-05-25T09:29:50.100Z,5.03
2023-05-25T09:32:21.005Z,5.10
2023-05-25T09:34:49.583Z,4.80
2023-05-25T09:37:20.089Z,4.50
2023-05-25T09:39:49.298Z,4.83
2023-05-25T09:42:18.302Z,4.60
2023-05-25T09:44:46.834Z,4.40
2023-05-25T09:47:17.094Z,4.83
2023-05-25T09:49:49.513Z,5.00
2023-05-25T09:52:18.414Z,5.00
2023-05-25T09:54:47.904Z,5.27
2023-05-25T09:57:17.353Z,4.87
2023-05-25T09:59:46.363Z,5.33
2023-05-25T10:02:15.784Z,5.30
2023-05-25T10:04:44.638Z,4.40
2023-05-25T10:07:16.277Z,4.50
2023-05-25T10:09:47.937Z,4.87
2023-05-25T10:12:20.975Z,5.07
2023-05-25T10:14:54.263Z,5.03
2023-05-25T10:17:25.810Z,4.87
2023-05-25T10:19:59.440Z,5.10
2023-05-25T10:22:36.046Z,4.80
2023-05-25T10:25:12.308Z,5.30
2023-05-25T10:27:43.158Z,5.10
2023-05-25T10:30:13.129Z,4.87
2023-05-25T10:32:44.241Z,4.97
2023-05-25T10:35:13.817Z,4.77
2023-05-25T10:37:45.503Z,5.90
2023-05-25T10:40:15.401Z,5.00
2023-05-25T10:42:44.391Z,4.77
2023-05-25T10:45:13.725Z,5.03
2023-05-25T10:47:43.313Z,4.70
2023-05-25T10:50:22.952Z,4.93
2023-05-25T10:53:03.872Z,4.80
2023-05-25T10:55:44.203Z,5.07
2023-05-25T10:58:15.052Z,4.87
2023-05-25T11:00:44.899Z,4.50
2023-05-25T11:03:13.476Z,5.87
2023-05-25T11:05:42.207Z,5.10
2023-05-25T11:08:13.224Z,4.43
2023-05-25T11:11:00.292Z,4.63
2023-05-25T11:13:39.771Z,4.60
2023-05-25T11:16:14.891Z,5.40
2023-05-25T11:18:44.151Z,5.50
2023-05-25T11:21:18.753Z,5.67
2023-05-25T11:24:00.279Z,5.83
2023-05-25T11:26:31.843Z,5.17
2023-05-25T11:29:02.341Z,5.63
2023-05-25T11:31:37.543Z,5.17
2023-05-25T11:34:09.490Z,5.27
2023-05-25T11:36:39.402Z,4.50
2023-05-25T11:39:17.521Z,5.77
2023-05-25T11:41:54.732Z,5.25
2023-05-25T11:44:31.278Z,4.68
2023-05-25T11:47:06.066Z,5.13
2023-05-25T11:49:34.569Z,4.57
2023-05-25T11:52:08.326Z,5.25
2023-05-25T11:54:41.154Z,5.25
2023-05-25T11:57:18.052Z,4.93
2023-05-25T11:59:51.126Z,4.50
2023-05-25T12:02:21.336Z,5.13
2023-05-25T12:04:58.578Z,5.05
2023-05-25T12:07:29.124Z,5.07
2023-05-25T12:10:08.766Z,5.65
2023-05-25T12:12:42.943Z,5.50
2023-05-25T12:15:13.321Z,5.00
2023-05-25T12:17:44.871Z,4.57
2023-05-25T12:20:16.106Z,5.72
2023-05-25T12:22:46.284Z,5.22
2023-05-25T12:25:20.993Z,4.32
2023-05-25T12:27:49.471Z,5.05
2023-05-25T12:30:18.010Z,5.78
2023-05-25T12:32:55.645Z,5.60
2023-05-25T12:35:24.504Z,4.93
2023-05-25T12:38:10.848Z,4.97
2023-05-25T12:40:42.123Z,5.60
2023-05-25T12:43:13.959Z,5.07
2023-05-25T12:45:43.975Z,4.97
2023-05-25T12:48:13.127Z,4.90
2023-05-25T12:50:58.626Z,4.95
2023-05-25T12:53:29.066Z,5.00
2023-05-25T12:56:06.635Z,4.90
2023-05-25T12:58:35.127Z,5.82
2023-05-25T13:01:03.609Z,5.10
2023-05-25T13:03:32.263Z,5.03
2023-05-25T13:06:04.845Z,5.53
2023-05-25T13:08:33.285Z,5.35
2023-05-25T13:11:03.756Z,5.03
2023-05-25T13:13:33.751Z,5.25
2023-05-25T13:16:02.257Z,5.70
2023-05-25T13:18:30.752Z,5.00
2023-05-25T13:20:59.766Z,5.80
2023-05-25T13:23:28.681Z,5.60
2023-05-25T13:25:57.264Z,4.82
2023-05-25T13:28:26.053Z,5.50
2023-05-25T13:30:55.788Z,4.93
2023-05-25T13:33:24.400Z,4.95
2023-05-25T13:35:59.573Z,4.60
2023-05-25T13:38:29.674Z,5.47
2023-05-25T13:40:58.416Z,4.95
2023-05-25T13:43:27.229Z,4.40
2023-05-25T13:45:59.102Z,5.63
2023-05-25T13:48:28.300Z,4.85
2023-05-25T13:50:57.150Z,4.88
2023-05-25T13:53:25.674Z,5.20
2023-05-25T13:55:54.409Z,5.30
2023-05-25T13:58:24.655Z,5.25
2023-05-25T14:00:53.497Z,5.35
2023-05-25T14:03:23.645Z,5.55
2023-05-25T14:05:53.866Z,5.40
2023-05-25T14:08:22.570Z,5.47
2023-05-25T14:10:51.145Z,4.90
2023-05-25T14:13:19.871Z,5.55
2023-05-25T14:15:48.438Z,4.55
2023-05-25T14:18:17.217Z,4.90
2023-05-25T14:20:47.341Z,5.07
2023-05-25T14:23:18.456Z,5.30
2023-05-25T14:25:48.834Z,5.30
2023-05-25T14:28:17.496Z,5.60
2023-05-25T14:30:45.976Z,5.07
2023-05-25T14:33:15.841Z,5.40
2023-05-25T14:35:44.712Z,5.93
2023-05-25T14:38:14.744Z,5.20
2023-05-25T14:40:43.229Z,5.43
2023-05-25T14:43:11.822Z,5.13
2023-05-25T14:45:40.411Z,5.55
2023-05-25T14:50:44.481Z,4.57
2023-05-25T14:53:14.815Z,5.15
2023-05-25T14:55:43.747Z,5.68
2023-05-25T14:58:12.416Z,5.32
2023-05-25T15:00:40.904Z,4.97
2023-05-25T15:03:09.509Z,5.10
2023-05-25T15:05:38.047Z,4.47
2023-05-25T15:08:06.774Z,4.60
2023-05-25T15:10:36.960Z,4.72
2023-05-25T15:13:05.494Z,5.15
2023-05-25T15:15:34.033Z,4.35
2023-05-25T15:18:02.574Z,4.32
2023-05-25T15:20:31.308Z,4.47
2023-05-25T15:22:59.898Z,4.63
2023-05-25T15:28:01.697Z,4.57
2023-05-25T15:30:30.358Z,4.88
2023-05-25T15:32:58.951Z,4.50
2023-05-25T15:35:31.570Z,4.80
2023-05-25T15:38:00.455Z,4.53
2023-05-25T15:40:29.363Z,4.45
2023-05-25T15:42:57.846Z,4.13
2023-05-25T15:45:27.714Z,4.65
2023-05-25T15:47:56.339Z,4.32
2023-05-25T15:50:24.870Z,5.55
2023-05-25T15:52:53.201Z,4.68
2023-05-25T15:55:22.059Z,4.95
2023-05-25T15:57:50.569Z,4.70
2023-05-25T16:00:19.890Z,4.53
2023-05-25T16:02:49.919Z,4.45
2023-05-25T16:05:18.901Z,4.75
2023-05-25T16:07:47.449Z,4.30
2023-05-25T16:10:15.966Z,5.35
2023-05-25T16:12:46.340Z,4.47
2023-05-25T16:15:15.347Z,4.53
2023-05-25T16:17:44.070Z,4.50
2023-05-25T16:20:14.549Z,4.80
2023-05-25T16:22:43.316Z,4.93
2023-05-25T16:25:12.287Z,4.15
2023-05-25T16:27:40.984Z,5.15
2023-05-25T16:30:12.536Z,4.82
2023-05-25T16:32:42.129Z,4.57
2023-05-25T16:35:11.116Z,4.68
2023-05-25T16:37:41.358Z,4.00
2023-05-25T16:40:11.349Z,4.05
2023-05-25T16:42:39.902Z,4.47
2023-05-25T16:45:09.944Z,3.95
2023-05-25T16:47:38.614Z,4.70
2023-05-25T16:50:09.237Z,4.70
2023-05-25T16:52:38.138Z,4.55
2023-05-25T16:55:09.378Z,4.40
2023-05-25T16:57:37.755Z,4.10
2023-05-25T17:00:08.285Z,4.63
2023-05-25T17:02:36.978Z,4.25
2023-05-25T17:05:06.836Z,4.43
2023-05-25T17:07:35.939Z,4.15
2023-05-25T17:10:04.596Z,4.20
2023-05-25T17:12:34.410Z,4.13
2023-05-25T17:15:02.976Z,4.82
2023-05-25T17:17:31.589Z,3.92
2023-05-25T17:20:00.472Z,4.43
2023-05-25T17:22:29.011Z,4.55
2023-05-25T17:24:57.467Z,4.63
2023-05-25T17:27:26.084Z,4.68
2023-05-25T17:29:55.988Z,4.95
2023-05-25T17:32:24.637Z,4.35
2023-05-25T17:34:53.175Z,4.82
2023-05-25T17:37:21.645Z,4.70
2023-05-25T17:39:50.141Z,4.30
2023-05-25T17:42:18.802Z,4.50
2023-05-25T17:44:47.266Z,3.97
2023-05-25T17:47:17.803Z,4.18
2023-05-25T17:49:46.290Z,4.63
2023-05-25T17:52:14.901Z,5.13
2023-05-25T17:54:43.458Z,4.88
2023-05-25T17:57:14.087Z,4.88
2023-05-25T17:59:44.825Z,4.90
2023-05-25T18:02:14.692Z,5.18
2023-05-25T18:04:44.936Z,4.75
2023-05-25T18:07:13.478Z,5.38
2023-05-25T18:09:44.661Z,4.90
2023-05-25T18:12:13.297Z,4.60
2023-05-25T18:14:44.753Z,4.90
2023-05-25T18:17:13.504Z,4.78
2023-05-25T18:19:43.580Z,5.13
2023-05-25T18:22:12.141Z,5.15
2023-05-25T18:24:41.275Z,5.53
2023-05-25T18:27:09.746Z,5.45
2023-05-25T18:29:38.203Z,5.22
2023-05-25T18:32:07.289Z,5.15
2023-05-25T18:34:35.707Z,5.45
2023-05-25T18:37:05.795Z,5.03
2023-05-25T18:39:34.549Z,5.83
2023-05-25T18:42:03.150Z,6.13
2023-05-25T18:44:31.567Z,4.60
2023-05-25T18:47:00.164Z,5.10
2023-05-25T18:49:32.810Z,5.17
2023-05-25T18:52:01.507Z,5.43
2023-05-25T18:54:31.643Z,5.40
2023-05-25T18:57:01.820Z,6.00
2023-05-25T18:59:31.609Z,5.57
2023-05-25T19:02:00.436Z,5.60
2023-05-25T19:04:29.346Z,6.07
2023-05-25T19:06:58.013Z,5.77
2023-05-25T19:09:26.652Z,5.47
2023-05-25T19:11:56.630Z,5.20
2023-05-25T19:14:25.170Z,5.50
2023-05-25T19:16:53.815Z,5.30
2023-05-25T19:19:22.385Z,6.10
2023-05-25T19:21:50.989Z,5.20
2023-05-25T19:24:19.705Z,5.73
2023-05-25T19:26:49.830Z,5.47
2023-05-25T19:29:19.919Z,5.47
2023-05-25T19:31:48.389Z,5.10
2023-05-25T19:34:16.995Z,4.87
2023-05-25T19:36:45.641Z,5.40
2023-05-25T19:39:14.891Z,5.20
2023-05-25T19:41:43.407Z,5.70
2023-05-25T19:44:12.402Z,5.73
2023-05-25T19:46:42.482Z,4.77
2023-05-25T19:49:11.003Z,5.60
2023-05-25T19:51:39.574Z,5.90
2023-05-25T19:54:08.485Z,5.50
2023-05-25T19:56:37.011Z,9.27
2023-05-25T19:59:07.410Z,8.60
2023-05-25T20:01:36.539Z,5.57
2023-05-25T20:04:06.474Z,6.20
2023-05-25T20:06:34.953Z,5.70
2023-05-25T20:09:03.697Z,5.13
2023-05-25T20:11:32.161Z,5.60
2023-05-25T20:14:00.670Z,5.50
2023-05-25T20:16:29.524Z,5.73
2023-05-25T20:18:58.430Z,5.77
2023-05-25T20:21:29.353Z,5.90
2023-05-25T20:23:59.156Z,6.03
2023-05-25T20:26:27.730Z,6.00
2023-05-25T20:28:56.408Z,6.17
2023-05-25T20:31:26.979Z,5.70
2023-05-25T20:33:55.521Z,6.10
2023-05-25T20:36:24.148Z,5.30
2023-05-25T20:38:54.542Z,5.27
2023-05-25T20:41:23.076Z,6.10
2023-05-25T20:43:51.597Z,5.93
2023-05-25T20:46:20.224Z,5.30
2023-05-25T20:48:48.686Z,5.53
2023-05-25T20:51:17.309Z,4.80
2023-05-25T20:53:45.755Z,5.10
2023-05-25T20:56:16.208Z,6.03
2023-05-25T20:58:45.004Z,5.50
2023-05-25T21:01:14.145Z,5.13
2023-05-25T21:03:42.828Z,4.97
2023-05-25T21:06:11.468Z,4.97
2023-05-25T21:08:39.947Z,5.10
2023-05-25T21:11:08.813Z,4.93
2023-05-25T21:13:39.084Z,6.43
2023-05-25T21:16:08.496Z,5.43
2023-05-25T21:18:37.032Z,6.00
2023-05-25T21:21:05.957Z,5.57
2023-05-25T21:23:34.438Z,4.53
2023-05-25T21:26:05.730Z,5.53
2023-05-25T21:28:34.286Z,5.47
2023-05-25T21:31:04.384Z,5.90
2023-05-25T21:33:35.938Z,5.50
2023-05-25T21:36:05.778Z,5.57
2023-05-25T21:38:34.861Z,6.63
2023-05-25T21:41:03.382Z,5.33
2023-05-25T21:43:31.911Z,5.27
2023-05-25T21:46:00.743Z,5.87
2023-05-25T21:48:30.682Z,6.47
2023-05-25T21:50:59.446Z,6.30
2023-05-25T21:53:28.321Z,5.07
2023-05-25T21:55:57.079Z,6.83
2023-05-25T21:58:25.637Z,6.70
2023-05-25T22:00:54.144Z,5.67
2023-05-25T22:03:22.748Z,5.73
2023-05-25T22:05:52.836Z,6.43
2023-05-25T22:08:21.426Z,5.73
2023-05-25T22:10:49.964Z,5.57
2023-05-25T22:13:18.595Z,5.53
2023-05-25T22:15:47.180Z,7.10
2023-05-25T22:18:16.536Z,6.67
2023-05-25T22:20:45.187Z,6.50
2023-05-25T22:23:15.643Z,5.57
2023-05-25T22:25:44.321Z,5.90
2023-05-25T22:28:13.098Z,6.37
2023-05-25T22:30:42.459Z,5.70
2023-05-25T22:33:11.235Z,5.93
2023-05-25T22:35:39.886Z,5.63
2023-05-25T22:38:08.363Z,6.10
2023-05-25T22:40:38.530Z,6.10
2023-05-25T22:43:12.802Z,5.93
2023-05-25T22:45:42.173Z,5.53
2023-05-25T22:48:12.381Z,6.30
2023-05-25T22:50:41.245Z,5.77
2023-05-25T22:53:09.884Z,5.50
2023-05-25T22:55:39.737Z,5.47
2023-05-25T22:58:08.126Z,5.63
2023-05-25T23:00:36.707Z,6.03
2023-05-25T23:03:05.314Z,6.67
2023-05-25T23:05:34.500Z,5.70
2023-05-25T23:08:03.829Z,5.37
2023-05-25T23:10:32.323Z,6.27
2023-05-25T23:13:02.492Z,6.23
2023-05-25T23:15:31.258Z,5.90
2023-05-25T23:18:00.017Z,5.50
2023-05-25T23:20:28.767Z,5.93
2023-05-25T23:22:57.357Z,5.70
2023-05-25T23:25:26.280Z,6.00
2023-05-25T23:27:54.757Z,5.90
2023-05-25T23:30:24.759Z,6.03
2023-05-25T23:32:53.196Z,5.83
2023-05-25T23:35:22.787Z,5.47
2023-05-25T23:37:52.124Z,5.03
2023-05-25T23:40:20.895Z,6.03
2023-05-25T23:42:49.360Z,6.23
2023-05-25T23:45:17.866Z,6.10
2023-05-25T23:47:47.899Z,6.97
2023-05-25T23:50:16.492Z,6.00
2023-05-25T23:52:45.836Z,6.07
2023-05-25T23:55:14.875Z,5.80
2023-05-25T23:57:45.650Z,5.40
